Time;durP1;ratioP1;P1;durP2;ratioP2;P2;SDS_P1;SDS_P2;PMS_P1;PMS_P2;Temp;Humidity;BMP_temperature;BMP_pressure;BME280_temperature;BME280_humidity;BME280_pressure;Samples;Min_cycle;Max_cycle;Signal;HPM_P1;HPM_P2
2022/12/03 00:02:12;;;;;;;26.33;12.50;;;3.20;99.90;;;;;;4983039;28;20034;-64
2022/12/03 00:04:40;;;;;;;27.77;13.10;;;3.20;99.90;;;;;;4982702;28;20049;-64
2022/12/03 00:07:09;;;;;;;27.63;13.23;;;3.20;99.90;;;;;;4995108;28;20043;-64
2022/12/03 00:09:34;;;;;;;24.55;13.30;;;3.60;99.90;;;;;;4995720;28;20062;-65
2022/12/03 00:12:00;;;;;;;27.52;18.88;;;3.20;99.90;;;;;;4995350;28;20308;-67
2022/12/03 00:14:26;;;;;;;28.45;14.43;;;3.20;99.90;;;;;;4995476;28;20042;-64
2022/12/03 00:16:53;;;;;;;24.60;12.73;;;3.20;99.90;;;;;;4995114;28;20069;-67
2022/12/03 00:19:19;;;;;;;26.10;13.52;;;3.30;99.90;;;;;;4995684;28;20105;-64
2022/12/03 00:21:44;;;;;;;27.48;20.05;;;3.20;99.90;;;;;;4995625;28;20336;-64
2022/12/03 00:24:10;;;;;;;26.52;14.05;;;3.40;99.90;;;;;;4994993;28;20088;-65
2022/12/03 00:26:36;;;;;;;23.92;11.93;;;3.40;99.90;;;;;;4994848;28;20069;-66
2022/12/03 00:29:01;;;;;;;25.27;13.07;;;3.30;99.90;;;;;;4995223;28;20077;-65
2022/12/03 00:31:29;;;;;;;23.67;12.82;;;3.40;99.90;;;;;;4995401;28;20042;-65
2022/12/03 00:33:54;;;;;;;26.77;13.57;;;3.30;99.90;;;;;;4995019;28;20054;-65
2022/12/03 00:36:21;;;;;;;27.77;14.10;;;3.30;99.90;;;;;;4975902;28;20075;-65
2022/12/03 00:38:47;;;;;;;31.10;14.63;;;3.30;99.90;;;;;;4969104;28;20052;-65
2022/12/03 00:41:12;;;;;;;29.27;20.15;;;3.30;99.90;;;;;;4995184;28;20367;-64
2022/12/03 00:43:38;;;;;;;26.50;13.55;;;3.40;99.90;;;;;;4977845;28;20422;-65
2022/12/03 00:46:04;;;;;;;27.63;13.18;;;3.30;99.90;;;;;;4994300;28;20125;-64
2022/12/03 00:48:29;;;;;;;28.17;12.77;;;3.30;99.90;;;;;;4994674;28;20053;-64
2022/12/03 00:50:55;;;;;;;27.92;14.57;;;3.30;99.90;;;;;;4994893;28;20100;-64
2022/12/03 00:53:21;;;;;;;28.77;15.15;;;3.30;99.90;;;;;;4994615;28;20058;-64
2022/12/03 00:55:49;;;;;;;27.23;19.08;;;3.30;99.90;;;;;;4994455;28;20050;-67
2022/12/03 00:58:15;;;;;;;27.17;14.30;;;3.30;99.90;;;;;;4994739;28;20038;-64
2022/12/03 01:00:40;;;;;;;26.85;15.13;;;3.40;99.90;;;;;;4999179;28;20060;-64
2022/12/03 01:03:06;;;;;;;26.98;13.73;;;3.40;99.90;;;;;;5014024;28;20056;-64
2022/12/03 01:05:31;;;;;;;29.90;13.80;;;3.40;99.90;;;;;;5004350;28;20041;-64
2022/12/03 01:07:57;;;;;;;28.90;20.48;;;3.50;99.90;;;;;;4996396;28;20107;-65
2022/12/03 01:10:24;;;;;;;29.70;15.05;;;3.50;99.90;;;;;;5013505;28;20057;-66
2022/12/03 01:12:50;;;;;;;30.75;14.48;;;3.40;99.90;;;;;;4994364;28;20440;-65
2022/12/03 01:15:15;;;;;;;29.15;12.93;;;3.30;99.90;;;;;;4997073;28;20038;-64
2022/12/03 01:17:41;;;;;;;29.70;14.82;;;3.40;99.90;;;;;;5012065;28;20034;-64
2022/12/03 01:20:08;;;;;;;30.25;15.55;;;3.40;99.90;;;;;;5013997;28;20038;-64
2022/12/03 01:22:42;;;;;;;27.77;13.52;;;3.40;99.90;;;;;;5014196;28;20038;-66
2022/12/03 01:25:08;;;;;;;;;;;3.40;99.90;;;;;;5005672;28;20049;-64
2022/12/03 01:27:35;;;;;;;28.92;13.30;;;3.40;99.90;;;;;;5009934;28;19921;-65
2022/12/03 01:30:01;;;;;;;31.05;21.30;;;3.40;99.90;;;;;;5014287;28;20085;-65
2022/12/03 01:32:27;;;;;;;29.50;14.32;;;3.50;99.90;;;;;;5013953;28;20073;-64
2022/12/03 01:34:58;;;;;;;28.55;15.50;;;3.40;99.90;;;;;;5007012;28;20057;-64
2022/12/03 01:37:25;;;;;;;26.67;13.68;;;3.40;99.90;;;;;;5007029;28;20034;-65
2022/12/03 01:39:51;;;;;;;27.48;20.05;;;3.50;99.90;;;;;;5013668;28;20037;-67
2022/12/03 01:42:24;;;;;;;31.42;14.77;;;3.50;99.90;;;;;;5013975;28;20038;-65
2022/12/03 01:44:52;;;;;;;29.13;14.43;;;3.50;99.90;;;;;;5011635;28;20114;-65
2022/12/03 01:47:21;;;;;;;29.35;20.08;;;3.50;99.90;;;;;;4995332;28;20080;-64
2022/12/03 01:50:02;;;;;;;26.95;14.90;;;3.50;99.90;;;;;;4999467;28;20072;-67
2022/12/03 01:52:31;;;;;;;29.52;14.77;;;3.50;99.90;;;;;;5013216;28;20120;-64
2022/12/03 01:54:59;;;;;;;28.60;19.80;;;3.50;99.90;;;;;;5009039;28;20053;-66
2022/12/03 01:57:50;;;;;;;29.65;14.20;;;3.50;99.90;;;;;;4995847;28;20088;-64
2022/12/03 02:00:19;;;;;;;28.63;14.10;;;3.50;99.90;;;;;;5012976;28;20030;-64
2022/12/03 02:02:47;;;;;;;25.75;12.77;;;3.40;99.90;;;;;;5005586;28;20049;-65
2022/12/03 02:05:19;;;;;;;27.00;13.73;;;3.50;99.90;;;;;;4997753;28;20061;-65
2022/12/03 02:07:45;;;;;;;30.35;15.32;;;3.60;99.90;;;;;;4995411;28;20042;-64
2022/12/03 02:10:12;;;;;;;29.42;14.75;;;3.50;99.90;;;;;;4966959;28;20046;-66
2022/12/03 02:12:53;;;;;;;26.50;14.65;;;3.50;99.90;;;;;;5012013;28;20037;-65
2022/12/03 02:15:19;;;;;;;29.33;15.00;;;3.50;99.90;;;;;;5002459;28;20502;-64
2022/12/03 02:17:45;;;;;;;26.67;13.40;;;3.50;99.90;;;;;;4994300;28;20038;-64
2022/12/03 02:20:11;;;;;;;25.80;13.13;;;3.50;99.90;;;;;;5013265;28;20042;-64
2022/12/03 02:22:55;;;;;;;28.55;20.48;;;3.50;99.90;;;;;;5012992;28;20038;-65
2022/12/03 02:25:26;;;;;;;26.42;12.85;;;3.70;99.90;;;;;;5002561;28;20129;-64
2022/12/03 02:27:54;;;;;;;25.85;13.23;;;3.70;99.90;;;;;;5011249;28;20049;-65
2022/12/03 02:30:22;;;;;;;27.38;13.77;;;3.70;99.90;;;;;;5009629;28;20077;-65
2022/12/03 02:32:50;;;;;;;24.83;11.43;;;3.70;99.90;;;;;;5009555;28;20390;-65
2022/12/03 02:35:20;;;;;;;27.65;13.90;;;3.70;99.90;;;;;;5003502;28;20049;-68
2022/12/03 02:37:51;;;;;;;27.13;13.63;;;3.60;99.90;;;;;;5008681;28;20050;-65
2022/12/03 02:40:24;;;;;;;29.42;14.48;;;3.60;99.90;;;;;;5012959;28;20100;-66
2022/12/03 02:42:54;;;;;;;25.65;14.23;;;3.60;99.90;;;;;;5012520;28;20466;-66
2022/12/03 02:45:29;;;;;;;27.17;13.80;;;3.70;99.90;;;;;;5011094;28;20501;-64
2022/12/03 02:48:10;;;;;;;26.63;14.38;;;3.70;99.90;;;;;;5012547;28;20064;-64
2022/12/03 02:50:40;;;;;;;24.25;19.27;;;3.70;99.90;;;;;;5003113;28;20817;-66
2022/12/03 02:53:11;;;;;;;25.10;14.00;;;3.60;99.90;;;;;;5008709;28;20057;-64
2022/12/03 02:55:37;;;;;;;26.25;19.75;;;3.60;99.90;;;;;;4976053;28;20076;-66
2022/12/03 02:58:04;;;;;;;26.83;13.90;;;3.70;99.90;;;;;;5012673;28;20089;-65
2022/12/03 03:00:30;;;;;;;25.42;13.52;;;3.60;99.90;;;;;;4995231;28;20108;-65
2022/12/03 03:02:56;;;;;;;20.08;11.85;;;3.60;99.90;;;;;;5015652;28;20153;-65
2022/12/03 03:05:22;;;;;;;26.15;14.07;;;3.70;99.90;;;;;;5007394;28;20113;-65
2022/12/03 03:07:50;;;;;;;26.83;14.60;;;3.70;99.90;;;;;;5015792;28;20152;-65
2022/12/03 03:10:21;;;;;;;25.45;13.82;;;3.70;99.90;;;;;;5016050;28;20441;-66
2022/12/03 03:12:47;;;;;;;27.25;15.57;;;3.70;99.90;;;;;;5016189;28;20084;-65
2022/12/03 03:15:14;;;;;;;26.85;15.40;;;3.70;99.90;;;;;;5002923;28;20419;-65
2022/12/03 03:17:41;;;;;;;27.15;14.07;;;3.60;99.90;;;;;;5014131;28;20359;-65
2022/12/03 03:20:08;;;;;;;29.08;15.40;;;3.60;99.90;;;;;;4998883;28;20077;-65
2022/12/03 03:22:40;;;;;;;26.27;14.15;;;3.50;99.90;;;;;;5016264;28;20046;-64
2022/12/03 03:25:09;;;;;;;24.77;18.70;;;3.60;99.90;;;;;;5006387;28;20050;-65
2022/12/03 03:27:36;;;;;;;26.85;14.02;;;3.60;99.90;;;;;;5009878;28;20355;-65
2022/12/03 03:30:03;;;;;;;25.00;14.13;;;3.60;99.90;;;;;;5004686;28;20093;-64
2022/12/03 03:32:29;;;;;;;26.23;14.35;;;3.70;99.90;;;;;;5015486;28;20427;-64
2022/12/03 03:35:00;;;;;;;27.27;14.32;;;3.60;99.90;;;;;;5009853;28;20034;-66
2022/12/03 03:37:27;;;;;;;28.30;14.98;;;3.60;99.90;;;;;;5009137;28;20064;-65
2022/12/03 03:39:53;;;;;;;26.52;19.38;;;3.60;99.90;;;;;;5015645;28;20045;-64
2022/12/03 03:42:19;;;;;;;27.70;15.65;;;3.60;99.90;;;;;;5015843;28;20038;-64
2022/12/03 03:44:45;;;;;;;27.48;14.77;;;3.60;99.90;;;;;;5001676;28;20037;-64
2022/12/03 03:47:11;;;;;;;27.77;15.18;;;3.60;99.90;;;;;;5015513;28;20315;-65
2022/12/03 03:49:39;;;;;;;27.23;15.20;;;3.50;99.90;;;;;;5015429;28;20323;-64
2022/12/03 03:52:05;;;;;;;28.98;15.10;;;3.50;99.90;;;;;;5015693;28;20041;-64
2022/12/03 03:54:31;;;;;;;29.67;16.35;;;3.60;99.90;;;;;;5012847;28;20050;-62
2022/12/03 03:56:57;;;;;;;30.40;16.33;;;3.70;99.90;;;;;;4986020;28;20054;-63
2022/12/03 03:59:22;;;;;;;25.95;14.77;;;3.60;99.90;;;;;;4989989;28;20046;-63
2022/12/03 04:01:48;;;;;;;27.67;15.48;;;3.60;99.90;;;;;;5014973;28;20061;-62
2022/12/03 04:04:20;;;;;;;27.88;16.05;;;3.70;99.90;;;;;;4987371;28;20088;-63
2022/12/03 04:06:46;;;;;;;31.25;16.25;;;3.60;99.90;;;;;;5000895;28;20405;-65
2022/12/03 04:09:11;;;;;;;27.40;15.77;;;3.60;99.90;;;;;;5015221;28;20100;-62
2022/12/03 04:14:21;;;;;;;29.15;15.65;;;3.60;99.90;;;;;;5013356;28;20050;-62
2022/12/03 04:16:47;;;;;;;25.40;19.52;;;3.50;99.90;;;;;;5005733;28;20052;-63
2022/12/03 04:19:12;;;;;;;31.13;16.77;;;3.60;99.90;;;;;;5001160;28;20054;-63
2022/12/03 04:24:22;;;;;;;28.33;21.30;;;3.70;99.90;;;;;;5013310;28;20384;-63
2022/12/03 04:29:32;;;;;;;28.77;21.00;;;3.60;99.90;;;;;;5013355;28;20045;-62
2022/12/03 04:37:26;;;;;;;26.50;14.25;;;3.60;99.90;;;;;;4990473;28;20313;-65
2022/12/03 04:39:52;;;;;;;26.27;15.23;;;3.60;99.90;;;;;;5014651;28;20435;-63
2022/12/03 04:42:17;;;;;;;29.48;15.40;;;3.50;99.90;;;;;;5014694;28;20103;-63
2022/12/03 04:44:43;;;;;;;30.33;15.40;;;3.40;99.90;;;;;;4997276;28;20467;-64
2022/12/03 04:47:18;;;;;;;26.20;14.77;;;3.30;99.90;;;;;;5003541;28;20041;-62
2022/12/03 04:49:48;;;;;;;26.92;15.52;;;3.30;99.90;;;;;;5014745;28;20065;-65
2022/12/03 04:52:18;;;;;;;30.40;15.48;;;3.30;99.90;;;;;;4996820;28;20045;-63
2022/12/03 04:54:44;;;;;;;26.42;14.93;;;3.40;99.90;;;;;;5000516;28;20045;-63
2022/12/03 04:57:10;;;;;;;27.15;13.45;;;3.40;99.90;;;;;;5013981;28;20099;-63
2022/12/03 04:59:37;;;;;;;26.52;14.05;;;3.40;99.90;;;;;;4996912;28;20177;-63
2022/12/03 05:02:04;;;;;;;25.90;14.65;;;3.30;99.90;;;;;;4992671;28;20232;-63
2022/12/03 05:04:29;;;;;;;25.85;14.30;;;3.30;99.90;;;;;;5012168;28;20034;-64
2022/12/03 05:06:55;;;;;;;26.02;14.75;;;3.30;99.90;;;;;;4990215;28;20095;-65
2022/12/03 05:09:26;;;;;;;27.13;16.00;;;3.20;99.90;;;;;;5013951;28;20103;-63
2022/12/03 05:11:52;;;;;;;25.33;15.40;;;3.30;99.90;;;;;;5014114;28;20041;-64
2022/12/03 05:14:17;;;;;;;21.80;12.80;;;3.20;99.90;;;;;;5014238;28;20037;-65
2022/12/03 05:16:43;;;;;;;25.73;14.98;;;3.30;99.90;;;;;;5005677;28;20147;-63
2022/12/03 05:19:08;;;;;;;28.77;15.23;;;3.30;99.90;;;;;;4997030;28;20061;-65
2022/12/03 05:21:34;;;;;;;25.02;14.00;;;3.30;99.90;;;;;;4996813;28;20042;-64
2022/12/03 05:24:01;;;;;;;26.88;14.07;;;3.30;99.90;;;;;;5013230;28;20034;-64
2022/12/03 05:26:27;;;;;;;24.10;13.50;;;3.20;99.90;;;;;;5002569;28;20073;-63
2022/12/03 05:28:59;;;;;;;26.67;15.43;;;3.20;99.90;;;;;;5013662;28;20084;-63
2022/12/03 05:31:27;;;;;;;27.20;20.08;;;3.20;99.90;;;;;;5013531;28;20041;-65
2022/12/03 05:33:54;;;;;;;27.33;14.25;;;3.30;99.90;;;;;;5013598;28;20108;-63
2022/12/03 05:36:19;;;;;;;22.48;11.82;;;3.20;99.90;;;;;;5000692;28;20103;-63
2022/12/03 05:38:45;;;;;;;26.30;14.60;;;3.30;99.90;;;;;;5013837;28;20034;-65
2022/12/03 05:43:55;;;;;;;27.17;14.65;;;3.30;99.90;;;;;;5013494;28;20042;-63
2022/12/03 05:46:20;;;;;;;26.42;13.02;;;3.30;99.90;;;;;;4976785;28;20068;-63
2022/12/03 05:48:46;;;;;;;28.05;13.25;;;3.30;99.90;;;;;;4982853;28;20042;-68
2022/12/03 05:51:12;;;;;;;26.33;13.02;;;3.30;99.90;;;;;;4976489;28;20176;-65
2022/12/03 05:53:37;;;;;;;26.23;14.68;;;3.20;99.90;;;;;;4993217;28;20078;-64
2022/12/03 05:56:03;;;;;;;27.58;20.40;;;3.10;99.90;;;;;;5005879;28;20057;-63
2022/12/03 05:58:28;;;;;;;28.60;16.17;;;3.30;99.90;;;;;;5012968;28;20081;-63
2022/12/03 06:00:54;;;;;;;25.80;13.15;;;3.20;99.90;;;;;;5013268;28;20095;-63
2022/12/03 06:03:20;;;;;;;27.58;21.15;;;3.20;99.90;;;;;;5013121;28;20104;-63
2022/12/03 06:05:45;;;;;;;26.70;13.75;;;3.10;99.90;;;;;;5005399;28;20038;-67
2022/12/03 06:08:11;;;;;;;28.35;14.90;;;3.10;99.90;;;;;;4992546;28;20066;-64
2022/12/03 06:10:36;;;;;;;24.63;13.15;;;3.00;99.90;;;;;;4982075;28;20113;-64
2022/12/03 06:13:02;;;;;;;27.35;14.25;;;3.20;99.90;;;;;;4981487;28;20383;-63
2022/12/03 06:15:27;;;;;;;27.95;14.40;;;3.20;99.90;;;;;;4983411;28;20070;-63
2022/12/03 06:17:53;;;;;;;28.02;20.08;;;3.10;99.90;;;;;;4976115;28;20047;-65
2022/12/03 06:20:19;;;;;;;23.67;13.13;;;3.20;99.90;;;;;;4963217;28;20430;-63
2022/12/03 06:22:46;;;;;;;26.05;14.50;;;3.10;99.90;;;;;;4981809;28;20037;-62
2022/12/03 06:25:12;;;;;;;25.38;14.27;;;3.20;99.90;;;;;;4982481;28;20455;-66
2022/12/03 06:27:37;;;;;;;28.38;15.52;;;3.30;99.90;;;;;;4979902;28;20047;-63
2022/12/03 06:30:04;;;;;;;27.58;14.52;;;3.20;99.90;;;;;;4974474;28;20364;-62
2022/12/03 06:32:30;;;;;;;28.90;15.55;;;3.10;99.90;;;;;;4957887;28;20475;-64
2022/12/03 06:34:58;;;;;;;31.60;15.50;;;3.00;99.90;;;;;;4968953;28;20050;-62
2022/12/03 06:37:24;;;;;;;28.17;15.30;;;3.00;99.90;;;;;;4978460;28;20073;-62
2022/12/03 06:39:51;;;;;;;25.70;14.32;;;3.10;99.90;;;;;;4960898;28;20388;-63
2022/12/03 06:42:16;;;;;;;29.70;15.85;;;3.10;99.90;;;;;;4975402;28;20038;-64
2022/12/03 06:44:42;;;;;;;29.15;15.35;;;3.00;99.90;;;;;;4961686;28;20042;-63
2022/12/03 06:47:07;;;;;;;27.27;20.38;;;3.10;99.90;;;;;;4984548;28;20340;-63
2022/12/03 06:49:33;;;;;;;28.88;16.67;;;3.10;99.90;;;;;;4974521;28;20038;-63
2022/12/03 06:51:59;;;;;;;26.65;14.82;;;3.00;99.90;;;;;;4973235;28;20046;-63
2022/12/03 06:54:24;;;;;;;28.42;15.65;;;3.10;99.90;;;;;;4973079;28;20066;-63
2022/12/03 06:56:50;;;;;;;25.08;14.10;;;3.10;99.90;;;;;;4977774;28;20352;-63
2022/12/03 06:59:16;;;;;;;29.73;23.15;;;3.20;99.90;;;;;;4981126;28;20043;-65
2022/12/03 07:01:41;;;;;;;33.65;18.48;;;3.20;99.90;;;;;;4958491;28;20045;-63
2022/12/03 07:04:07;;;;;;;28.42;16.23;;;3.00;99.90;;;;;;4975707;28;20038;-63
2022/12/03 07:06:32;;;;;;;33.30;17.85;;;3.00;99.90;;;;;;4981779;28;20058;-63
2022/12/03 07:08:58;;;;;;;28.25;15.68;;;3.00;99.90;;;;;;4976787;28;20069;-63
2022/12/03 07:11:30;;;;;;;31.23;17.65;;;3.10;99.90;;;;;;4973985;28;20115;-65
2022/12/03 07:13:59;;;;;;;32.20;15.98;;;3.10;99.90;;;;;;4975020;28;20057;-64
2022/12/03 07:16:25;;;;;;;33.28;17.40;;;3.10;99.90;;;;;;4981396;28;20046;-64
2022/12/03 07:18:50;;;;;;;30.40;16.65;;;3.00;99.90;;;;;;4973148;28;20046;-66
2022/12/03 07:21:18;;;;;;;34.00;16.58;;;3.00;99.90;;;;;;4988521;28;20381;-64
2022/12/03 07:23:43;;;;;;;30.55;15.23;;;3.00;99.90;;;;;;4974911;28;20546;-64
2022/12/03 07:26:09;;;;;;;29.42;14.80;;;3.10;99.90;;;;;;4986133;28;20076;-64
2022/12/03 07:28:34;;;;;;;35.08;16.95;;;3.10;99.90;;;;;;4974065;28;20109;-63
2022/12/03 07:31:00;;;;;;;32.08;15.40;;;3.00;99.90;;;;;;4975729;28;20054;-64
2022/12/03 07:33:26;;;;;;;31.25;15.68;;;3.00;99.90;;;;;;4976521;28;20034;-64
2022/12/03 07:35:51;;;;;;;33.08;16.45;;;3.10;99.90;;;;;;4962358;28;20034;-64
2022/12/03 07:38:17;;;;;;;33.00;15.73;;;3.00;99.90;;;;;;4992154;28;20046;-64
2022/12/03 07:40:43;;;;;;;31.05;17.05;;;3.00;99.90;;;;;;4992580;28;20031;-64
2022/12/03 07:43:08;;;;;;;33.40;17.15;;;3.00;99.90;;;;;;4992467;28;20092;-63
2022/12/03 07:45:34;;;;;;;34.35;16.75;;;3.00;99.90;;;;;;4991927;28;20060;-62
2022/12/03 07:47:59;;;;;;;34.75;18.33;;;2.90;99.90;;;;;;4976199;28;20074;-62
2022/12/03 07:50:27;;;;;;;37.38;19.58;;;2.90;99.90;;;;;;4978452;28;20042;-63
2022/12/03 07:52:53;;;;;;;36.35;18.35;;;2.80;99.90;;;;;;4977990;28;20141;-65
2022/12/03 07:55:18;;;;;;;33.83;18.25;;;2.80;99.90;;;;;;4977997;28;20065;-64
2022/12/03 07:57:44;;;;;;;37.03;20.17;;;2.80;99.90;;;;;;4995696;28;20444;-63
2022/12/03 08:00:10;;;;;;;37.58;18.67;;;2.70;99.90;;;;;;4995994;28;20089;-63
2022/12/03 08:02:36;;;;;;;36.55;19.75;;;2.70;99.90;;;;;;5014778;28;20084;-64
2022/12/03 08:05:02;;;;;;;39.28;21.83;;;2.70;99.90;;;;;;5010063;28;20066;-66
2022/12/03 08:07:27;;;;;;;36.65;18.98;;;2.70;99.90;;;;;;5013794;28;20063;-65
2022/12/03 08:09:54;;;;;;;39.42;20.23;;;2.70;99.90;;;;;;4997791;28;20060;-65
2022/12/03 08:12:39;;;;;;;39.65;20.70;;;2.60;99.90;;;;;;5014652;28;20042;-64
2022/12/03 08:15:22;;;;;;;38.37;20.27;;;2.60;99.90;;;;;;5009230;28;20113;-64
2022/12/03 08:17:57;;;;;;;39.42;19.33;;;2.50;99.90;;;;;;5014228;28;20772;-68
2022/12/03 08:20:24;;;;;;;;;;;2.60;99.90;;;;;;5015327;28;20331;-63
2022/12/03 08:22:52;;;;;;;34.17;18.60;;;2.60;99.90;;;;;;5014860;28;19936;-64
2022/12/03 08:25:21;;;;;;;37.22;19.67;;;2.50;99.90;;;;;;5007435;28;20318;-63
2022/12/03 08:27:47;;;;;;;38.00;21.02;;;2.50;99.90;;;;;;5012783;28;20270;-64
2022/12/03 08:30:15;;;;;;;35.47;19.00;;;2.60;99.90;;;;;;5015762;28;20038;-63
2022/12/03 08:32:42;;;;;;;37.10;19.90;;;2.50;99.90;;;;;;4983877;28;20042;-63
2022/12/03 08:35:18;;;;;;;35.13;19.15;;;2.50;99.90;;;;;;5005921;28;20125;-63
2022/12/03 08:37:44;;;;;;;42.30;21.42;;;2.50;99.90;;;;;;4996513;28;20057;-64
2022/12/03 08:40:22;;;;;;;38.90;19.75;;;2.50;99.90;;;;;;5014322;28;20371;-64
2022/12/03 08:42:48;;;;;;;38.88;19.27;;;2.40;99.90;;;;;;4996777;28;20056;-63
2022/12/03 08:45:27;;;;;;;40.20;28.25;;;2.40;99.90;;;;;;5006644;28;20370;-64
2022/12/03 08:48:02;;;;;;;39.20;20.23;;;2.50;99.90;;;;;;5009591;28;20405;-64
2022/12/03 08:50:32;;;;;;;40.70;20.58;;;2.50;99.90;;;;;;4992949;28;20045;-63
2022/12/03 08:53:10;;;;;;;40.60;20.50;;;2.50;99.90;;;;;;4998931;28;20058;-63
2022/12/03 08:55:38;;;;;;;40.92;19.60;;;2.50;99.90;;;;;;4994130;28;20037;-64
2022/12/03 08:58:32;;;;;;;40.38;20.27;;;2.50;99.90;;;;;;4994403;28;20149;-63
2022/12/03 09:01:14;;;;;;;36.63;19.85;;;2.50;99.90;;;;;;4966576;28;20140;-65
2022/12/03 09:03:51;;;;;;;44.45;20.30;;;2.50;99.90;;;;;;4977538;28;20136;-65
2022/12/03 09:06:18;;;;;;;39.33;21.65;;;2.50;99.90;;;;;;4958783;28;20109;-64
2022/12/03 09:08:44;;;;;;;42.63;19.58;;;2.40;99.90;;;;;;4976092;28;20534;-64
2022/12/03 09:11:10;;;;;;;35.75;26.20;;;2.50;99.90;;;;;;4974774;28;20479;-64
2022/12/03 09:13:36;;;;;;;35.10;18.58;;;2.50;99.90;;;;;;4993553;28;20125;-64
2022/12/03 09:16:01;;;;;;;37.15;19.40;;;2.50;99.90;;;;;;4993632;28;20426;-64
2022/12/03 09:18:27;;;;;;;37.33;18.75;;;2.50;99.90;;;;;;4994053;28;20054;-64
2022/12/03 09:20:56;;;;;;;38.08;19.48;;;2.50;99.90;;;;;;4993798;28;20122;-64
2022/12/03 09:23:22;;;;;;;37.35;19.27;;;2.50;99.90;;;;;;4994103;28;20359;-65
2022/12/03 09:25:49;;;;;;;36.45;19.95;;;2.50;99.90;;;;;;4989377;28;20058;-66
2022/12/03 09:28:16;;;;;;;36.88;17.77;;;2.50;99.90;;;;;;4986918;28;20046;-66
2022/12/03 09:30:41;;;;;;;35.00;17.60;;;2.50;99.90;;;;;;4975547;28;20463;-64
2022/12/03 09:33:09;;;;;;;40.88;19.98;;;2.60;99.90;;;;;;4993452;28;20088;-64
2022/12/03 09:35:35;;;;;;;34.20;19.10;;;2.50;99.90;;;;;;4975783;28;20082;-66
2022/12/03 09:38:00;;;;;;;36.50;26.27;;;2.50;99.90;;;;;;4993730;28;20088;-65
2022/12/03 09:40:27;;;;;;;34.63;17.40;;;2.50;99.90;;;;;;4990641;28;20038;-65
2022/12/03 09:42:57;;;;;;;35.28;18.90;;;2.60;99.90;;;;;;4993164;28;20363;-65
2022/12/03 09:45:23;;;;;;;37.13;20.38;;;2.60;99.90;;;;;;4993127;28;20089;-65
2022/12/03 09:47:49;;;;;;;37.85;18.63;;;2.50;99.90;;;;;;4975818;28;20054;-65
2022/12/03 09:50:21;;;;;;;33.92;17.83;;;2.50;99.90;;;;;;4955134;28;20046;-65
2022/12/03 09:52:48;;;;;;;29.35;16.10;;;2.50;99.90;;;;;;4973713;28;20062;-65
2022/12/03 09:55:22;;;;;;;33.58;17.58;;;2.60;99.90;;;;;;4975911;28;20379;-66
2022/12/03 09:57:48;;;;;;;33.85;17.17;;;2.50;99.90;;;;;;4943895;28;20062;-66
2022/12/03 10:00:20;;;;;;;34.88;18.00;;;2.50;99.90;;;;;;4965718;28;20030;-66
2022/12/03 10:02:48;;;;;;;35.67;17.38;;;2.40;99.90;;;;;;5000016;28;20053;-66
2022/12/03 10:05:18;;;;;;;33.03;17.73;;;2.50;99.90;;;;;;4975521;28;20030;-65
2022/12/03 10:07:45;;;;;;;37.35;19.42;;;2.40;99.90;;;;;;4969868;28;20078;-66
2022/12/03 10:10:22;;;;;;;35.50;17.73;;;2.40;99.90;;;;;;4989348;28;20041;-65
2022/12/03 10:12:49;;;;;;;36.50;18.48;;;2.50;99.90;;;;;;4979991;28;20061;-65
2022/12/03 10:15:20;;;;;;;35.13;18.98;;;2.60;99.90;;;;;;4988558;28;20070;-65
2022/12/03 10:17:48;;;;;;;36.15;18.35;;;2.50;99.90;;;;;;4990485;28;20046;-66
2022/12/03 10:20:24;;;;;;;38.88;19.25;;;2.60;99.90;;;;;;4988245;28;20770;-66
2022/12/03 10:22:50;;;;;;;48.53;19.48;;;2.50;99.90;;;;;;4975834;28;20416;-66
2022/12/03 10:25:22;;;;;;;34.53;19.65;;;2.60;99.90;;;;;;4992986;28;20045;-69
2022/12/03 10:27:59;;;;;;;41.22;19.83;;;2.50;99.90;;;;;;4992936;28;20049;-66
2022/12/03 10:30:27;;;;;;;34.95;26.15;;;2.60;99.90;;;;;;4993224;28;20117;-65
2022/12/03 10:32:54;;;;;;;38.08;18.92;;;2.60;99.90;;;;;;4989834;28;20048;-65
2022/12/03 10:35:24;;;;;;;60.08;18.08;;;2.50;99.90;;;;;;4968924;28;20085;-65
2022/12/03 10:38:02;;;;;;;38.55;19.00;;;2.40;99.90;;;;;;4991445;28;20184;-65
2022/12/03 10:40:37;;;;;;;36.17;26.23;;;2.50;99.90;;;;;;4992597;28;20038;-64
2022/12/03 10:43:12;;;;;;;;;;;2.60;99.90;;;;;;4993272;28;20093;-63
2022/12/03 10:45:38;;;;;;;36.67;18.65;;;2.40;99.90;;;;;;4983400;28;19926;-65
2022/12/03 10:48:14;;;;;;;37.45;19.00;;;2.50;99.90;;;;;;4992245;28;20046;-64
2022/12/03 10:51:12;;;;;;;37.42;18.48;;;2.50;99.90;;;;;;4976945;28;20104;-62
2022/12/03 10:53:39;;;;;;;39.85;19.17;;;2.40;99.90;;;;;;4980183;28;20062;-64
2022/12/03 10:56:07;;;;;;;37.25;19.10;;;2.50;99.90;;;;;;4982937;28;20385;-61
2022/12/03 10:58:40;;;;;;;36.03;19.08;;;2.60;99.90;;;;;;4991118;28;20487;-64
2022/12/03 11:01:17;;;;;;;36.58;18.48;;;2.50;99.90;;;;;;4982720;28;20038;-63
2022/12/03 11:03:44;;;;;;;40.53;20.05;;;2.50;99.90;;;;;;5011992;28;20061;-66
2022/12/03 11:06:17;;;;;;;42.10;20.58;;;2.60;99.90;;;;;;5006075;28;20076;-65
2022/12/03 11:08:45;;;;;;;35.25;18.83;;;2.70;99.90;;;;;;4992753;28;20047;-65
2022/12/03 11:11:16;;;;;;;42.45;20.52;;;2.70;99.90;;;;;;4979930;28;20046;-65
2022/12/03 11:14:01;;;;;;;41.88;21.73;;;2.70;99.90;;;;;;4973010;28;20120;-64
2022/12/03 11:16:39;;;;;;;37.83;20.55;;;2.60;99.90;;;;;;4975871;28;20522;-65
2022/12/03 11:19:41;;;;;;;41.97;20.52;;;2.50;99.90;;;;;;4992133;28;20050;-64
2022/12/03 11:22:10;;;;;;;39.85;19.60;;;2.60;99.90;;;;;;4979091;28;20051;-64
2022/12/03 11:24:40;;;;;;;37.55;21.98;;;2.60;99.90;;;;;;4983027;28;20056;-64
2022/12/03 11:27:09;;;;;;;39.20;20.73;;;2.60;99.90;;;;;;4988934;28;20129;-64
2022/12/03 11:29:54;;;;;;;39.95;21.35;;;2.60;99.90;;;;;;4978687;28;20128;-65
2022/12/03 11:32:38;;;;;;;37.92;27.83;;;2.70;99.90;;;;;;4990072;28;20031;-65
2022/12/03 11:35:24;;;;;;;38.10;19.50;;;2.70;99.90;;;;;;4986688;28;20379;-65
2022/12/03 11:37:50;;;;;;;36.13;18.85;;;2.70;99.90;;;;;;4963523;28;20052;-64
2022/12/03 11:40:16;;;;;;;42.72;20.90;;;2.70;99.90;;;;;;4985782;28;20038;-67
2022/12/03 11:42:41;;;;;;;38.83;19.58;;;2.60;99.90;;;;;;4995985;28;20047;-64
2022/12/03 11:45:07;;;;;;;44.20;22.25;;;2.70;99.90;;;;;;4995104;28;20034;-62
2022/12/03 11:47:41;;;;;;;44.75;21.63;;;2.70;99.90;;;;;;4995476;28;20046;-66
2022/12/03 11:50:33;;;;;;;39.70;20.00;;;2.70;99.90;;;;;;4982681;28;20042;-66
2022/12/03 11:53:02;;;;;;;34.75;18.55;;;2.70;99.90;;;;;;4986925;28;20058;-62
2022/12/03 11:55:33;;;;;;;41.50;29.05;;;2.70;99.90;;;;;;4986405;28;20356;-65
2022/12/03 11:58:03;;;;;;;40.30;21.13;;;2.80;99.90;;;;;;4989944;28;20046;-68
2022/12/03 12:00:31;;;;;;;39.08;20.33;;;2.90;99.90;;;;;;4986160;28;20034;-67
2022/12/03 12:02:57;;;;;;;39.25;19.83;;;2.80;99.90;;;;;;4981422;28;20045;-65
2022/12/03 12:05:34;;;;;;;40.42;21.27;;;2.80;99.90;;;;;;4976539;28;20053;-67
2022/12/03 12:08:01;;;;;;;41.28;20.48;;;2.80;99.90;;;;;;4968809;28;20125;-70
2022/12/03 12:11:03;;;;;;;44.92;21.80;;;2.70;99.90;;;;;;4977159;28;20161;-67
2022/12/03 12:13:32;;;;;;;38.08;19.90;;;2.80;99.90;;;;;;4945849;29;20054;-66
2022/12/03 12:16:06;;;;;;;39.63;21.42;;;2.70;99.90;;;;;;4970416;28;20156;-66
2022/12/03 12:18:35;;;;;;;38.17;20.08;;;2.70;99.90;;;;;;4977300;28;20046;-67
2022/12/03 12:21:42;;;;;;;39.35;20.73;;;2.70;99.90;;;;;;4970905;28;20481;-67
2022/12/03 12:24:29;;;;;;;41.08;21.65;;;2.70;99.90;;;;;;4978420;28;20104;-67
2022/12/03 12:27:05;;;;;;;38.65;20.95;;;2.70;99.90;;;;;;4978008;28;20042;-68
2022/12/03 12:29:32;;;;;;;40.35;21.05;;;2.70;99.90;;;;;;4978496;28;20451;-68
2022/12/03 12:32:02;;;;;;;40.08;20.65;;;2.60;99.90;;;;;;4978773;28;20038;-65
2022/12/03 12:34:28;;;;;;;43.03;22.00;;;2.60;99.90;;;;;;4977851;28;20061;-69
2022/12/03 12:36:58;;;;;;;41.78;29.75;;;2.60;99.90;;;;;;4994877;28;20422;-69
2022/12/03 12:39:25;;;;;;;44.17;22.70;;;2.70;99.90;;;;;;4934369;28;20109;-68
2022/12/03 12:41:53;;;;;;;40.30;21.15;;;2.60;99.90;;;;;;4961842;28;20049;-68
2022/12/03 12:44:22;;;;;;;39.67;20.83;;;2.70;99.90;;;;;;4961882;28;20061;-66
2022/12/03 12:46:52;;;;;;;38.72;19.48;;;2.80;99.90;;;;;;4961772;28;20166;-68
2022/12/03 12:49:22;;;;;;;43.63;22.30;;;2.90;99.90;;;;;;4977692;28;20046;-68
2022/12/03 12:51:49;;;;;;;42.67;21.13;;;2.90;99.90;;;;;;4961091;28;20183;-69
2022/12/03 12:54:16;;;;;;;40.13;29.00;;;2.90;99.90;;;;;;4977809;28;20065;-69
2022/12/03 12:56:45;;;;;;;42.33;22.48;;;2.90;99.90;;;;;;4978005;28;20042;-69
2022/12/03 12:59:10;;;;;;;42.55;21.50;;;2.80;99.90;;;;;;4977729;28;20043;-68
2022/12/03 13:01:40;;;;;;;44.92;22.13;;;2.70;99.90;;;;;;4989462;28;20370;-68
2022/12/03 13:04:14;;;;;;;38.22;22.35;;;2.70;99.90;;;;;;4997246;28;20087;-69